Antigonish, Canada
Current Conditions -  °F | °C
As of 1:00 PM on Wednesday 26 Nov 2014 (Local Time) from CYPD Reporting Station
Few Clouds Few Clouds  
Wind Chill: 38°   Ceiling: Unl
Heat Index: 45°   Visibility: 9mi
Dew Point: 32°   Wind: 13mph
Humidity: 61%   Direction: 290°WNW
Pressure: 30.17"   Gusts: 18mph
Location:  45.62°N, 61.99°W
Report Text: CYPD 261700Z AUTO 29011G16KT 9SM FEW120 07/00 A3017 RMK SLP221
Loading
Personal Weather Stations






























Interactive Weather Map New forecast layout! Learn more

10-Day Weather Forecast

Advertisements
Track Severe Weather on mobile